createdAt,value
2018-11-20T00:00:04.315Z,40.60
2018-11-20T00:03:03.211Z,40.70
2018-11-20T00:06:09.645Z,40.60
2018-11-20T00:09:01.181Z,40.60
2018-11-20T00:11:55.798Z,40.50
2018-11-20T00:14:37.987Z,40.50
2018-11-20T00:17:35.263Z,40.60
2018-11-20T00:20:29.227Z,40.50
2018-11-20T00:23:23.271Z,40.50
2018-11-20T00:26:13.303Z,40.40
2018-11-20T00:29:03.122Z,40.40
2018-11-20T00:31:52.907Z,40.50
2018-11-20T00:34:36.409Z,40.40
2018-11-20T00:37:25.287Z,40.50
2018-11-20T00:40:28.787Z,40.60
2018-11-20T00:43:20.907Z,40.40
2018-11-20T00:46:20.866Z,40.40
2018-11-20T00:49:18.195Z,40.40
2018-11-20T00:52:15.603Z,40.30
2018-11-20T00:55:08.611Z,40.40
2018-11-20T00:57:58.753Z,40.30
2018-11-20T01:00:55.858Z,40.20
2018-11-20T01:03:57.394Z,40.30
2018-11-20T01:06:46.404Z,40.20
2018-11-20T01:09:39.727Z,40.40
2018-11-20T01:12:25.693Z,40.40
2018-11-20T01:15:19.634Z,40.50
2018-11-20T01:18:05.768Z,40.30
2018-11-20T01:20:59.668Z,40.20
2018-11-20T01:23:46.309Z,40.40
2018-11-20T01:26:29.284Z,40.40
2018-11-20T01:29:21.540Z,40.50
2018-11-20T01:32:03.313Z,40.40
2018-11-20T01:34:52.399Z,40.40
2018-11-20T01:37:38.163Z,40.40
2018-11-20T01:40:31.932Z,40.40
2018-11-20T01:43:23.158Z,40.30
2018-11-20T01:46:23.225Z,40.40
2018-11-20T01:49:23.326Z,40.40
2018-11-20T01:52:05.658Z,40.30
2018-11-20T01:54:48.239Z,40.40
2018-11-20T01:57:42.103Z,40.30
2018-11-20T02:00:29.948Z,40.40
2018-11-20T02:03:33.401Z,40.10
2018-11-20T02:06:24.830Z,40.30
2018-11-20T02:09:16.062Z,40.20
2018-11-20T02:12:04.032Z,40.20
2018-11-20T02:14:54.437Z,40.20
2018-11-20T02:17:57.471Z,40.10
2018-11-20T02:21:00.740Z,40.10
2018-11-20T02:24:00.923Z,40.20
2018-11-20T02:26:52.193Z,40.20
2018-11-20T02:29:47.955Z,40.10
2018-11-20T02:32:34.683Z,40.00
2018-11-20T02:35:38.327Z,40.20
2018-11-20T02:38:29.579Z,40.10
2018-11-20T02:41:20.354Z,40.00
2018-11-20T02:44:13.165Z,40.00
2018-11-20T02:47:23.323Z,40.00
2018-11-20T02:50:17.526Z,39.90
2018-11-20T02:53:08.780Z,39.80
2018-11-20T02:56:08.839Z,39.80
2018-11-20T02:59:08.947Z,39.70
2018-11-20T03:02:12.775Z,39.80
2018-11-20T03:05:12.939Z,39.70
2018-11-20T03:08:02.992Z,39.80
2018-11-20T03:11:03.269Z,39.70
2018-11-20T03:13:53.369Z,39.90
2018-11-20T03:16:39.093Z,39.90
2018-11-20T03:19:20.554Z,39.90
2018-11-20T03:22:04.932Z,40.10
2018-11-20T03:25:14.643Z,39.80
2018-11-20T03:28:09.155Z,39.90
2018-11-20T03:31:27.329Z,39.70
2018-11-20T03:34:21.810Z,39.60
2018-11-20T03:37:19.251Z,39.50
2018-11-20T03:40:16.021Z,39.70
2018-11-20T03:43:02.784Z,39.70
2018-11-20T03:45:46.709Z,39.70
2018-11-20T03:48:40.596Z,39.60
2018-11-20T03:51:30.875Z,39.60
2018-11-20T03:54:15.807Z,39.50
2018-11-20T03:57:09.795Z,39.40
2018-11-20T03:59:58.647Z,39.50
2018-11-20T04:03:08.011Z,39.50
2018-11-20T04:05:57.852Z,39.40
2018-11-20T04:08:54.716Z,39.50
2018-11-20T04:11:33.928Z,39.50
2018-11-20T04:14:25.193Z,39.70
2018-11-20T04:17:07.451Z,39.60
2018-11-20T04:19:52.245Z,39.60
2018-11-20T04:22:49.249Z,39.50
2018-11-20T04:25:46.289Z,39.60
2018-11-20T04:28:30.362Z,39.60
2018-11-20T04:31:59.900Z,39.40
2018-11-20T04:34:49.959Z,39.50
2018-11-20T04:37:40.792Z,39.80
2018-11-20T04:40:34.962Z,39.80
2018-11-20T04:43:26.458Z,39.80
2018-11-20T04:46:16.447Z,39.90
2018-11-20T04:49:10.377Z,39.70
2018-11-20T04:52:00.307Z,39.80
2018-11-20T04:55:03.272Z,39.80
2018-11-20T04:57:53.374Z,39.80
2018-11-20T05:00:43.426Z,39.80
2018-11-20T05:03:40.666Z,39.60
2018-11-20T05:06:34.886Z,39.70
2018-11-20T05:09:28.743Z,39.70
2018-11-20T05:12:20.001Z,39.60
2018-11-20T05:15:17.288Z,39.50
2018-11-20T05:18:09.014Z,39.60
2018-11-20T05:21:12.272Z,39.50
2018-11-20T05:24:21.437Z,39.50
2018-11-20T05:27:02.339Z,39.40
2018-11-20T05:29:56.542Z,39.50
2018-11-20T05:32:47.790Z,39.60
2018-11-20T05:35:37.343Z,39.50
2018-11-20T05:38:37.463Z,39.60
2018-11-20T05:41:21.317Z,39.60
2018-11-20T05:44:12.567Z,39.50
2018-11-20T05:47:02.387Z,39.50
2018-11-20T05:50:02.991Z,39.30
2018-11-20T05:52:47.674Z,39.30
2018-11-20T05:55:41.658Z,39.30
2018-11-20T05:58:32.915Z,39.40
2018-11-20T06:01:33.344Z,39.40
2018-11-20T06:04:23.623Z,39.50
2018-11-20T06:07:30.198Z,39.50
2018-11-20T06:10:20.343Z,39.30
2018-11-20T06:13:29.812Z,39.30
2018-11-20T06:16:24.000Z,39.30
2018-11-20T06:19:14.059Z,39.40
2018-11-20T06:22:04.257Z,39.60
2018-11-20T06:24:57.602Z,39.80
2018-11-20T06:27:44.344Z,39.90
2018-11-20T06:30:42.089Z,39.80
2018-11-20T06:33:39.331Z,40.00
2018-11-20T06:36:39.491Z,39.90
2018-11-20T06:39:29.608Z,39.80
2018-11-20T06:42:19.858Z,39.90
2018-11-20T06:45:13.719Z,39.90
2018-11-20T06:48:09.058Z,40.00
2018-11-20T06:51:07.007Z,39.80
2018-11-20T06:53:56.880Z,39.90
2018-11-20T06:56:45.850Z,39.80
2018-11-20T06:59:35.047Z,39.80
2018-11-20T07:02:26.307Z,39.80
2018-11-20T07:05:26.660Z,40.00
2018-11-20T07:08:19.413Z,39.90
2018-11-20T07:11:22.466Z,39.80
2018-11-20T07:14:29.468Z,39.80
2018-11-20T07:17:28.746Z,39.70
2018-11-20T07:20:33.591Z,39.70
2018-11-20T07:23:23.281Z,39.50
2018-11-20T07:26:13.427Z,39.50
2018-11-20T07:29:03.558Z,39.50
2018-11-20T07:32:13.069Z,39.70
2018-11-20T07:35:09.971Z,39.70
2018-11-20T07:37:59.823Z,39.80
2018-11-20T07:40:51.065Z,39.70
2018-11-20T07:43:41.235Z,39.80
2018-11-20T07:46:24.136Z,39.80
2018-11-20T07:49:30.246Z,40.00
2018-11-20T07:52:19.992Z,40.20
2018-11-20T07:55:29.740Z,40.10
2018-11-20T07:58:19.612Z,40.10
2018-11-20T08:01:09.784Z,40.10
2018-11-20T08:04:03.723Z,39.90
2018-11-20T08:07:04.223Z,40.00
2018-11-20T08:10:10.562Z,40.00
2018-11-20T08:13:13.497Z,39.80
2018-11-20T08:16:03.861Z,39.80
2018-11-20T08:18:55.008Z,39.90
2018-11-20T08:21:45.060Z,40.60
2018-11-20T08:24:51.525Z,40.00
2018-11-20T08:27:41.560Z,40.00
2018-11-20T08:30:41.572Z,40.00
2018-11-20T08:33:31.540Z,40.00
2018-11-20T08:36:31.735Z,40.00
2018-11-20T08:39:21.515Z,40.10
2018-11-20T08:42:11.426Z,40.10
2018-11-20T08:45:02.621Z,40.20
2018-11-20T08:47:52.547Z,40.10
2018-11-20T08:50:55.788Z,40.10
2018-11-20T08:53:54.355Z,40.00
2018-11-20T08:57:02.413Z,40.10
2018-11-20T08:59:59.640Z,39.90
2018-11-20T09:02:51.040Z,40.00
2018-11-20T09:05:57.338Z,40.20
2018-11-20T09:08:44.666Z,40.00
2018-11-20T09:11:40.770Z,40.00
2018-11-20T09:14:40.813Z,40.10
2018-11-20T09:17:34.864Z,39.90
2018-11-20T09:20:26.660Z,40.00
2018-11-20T09:23:20.835Z,39.90
2018-11-20T09:26:04.829Z,40.00
2018-11-20T09:28:54.663Z,39.80
2018-11-20T09:31:44.751Z,40.00
2018-11-20T09:34:54.016Z,39.90
2018-11-20T09:37:47.972Z,40.00
2018-11-20T09:41:12.673Z,40.00
2018-11-20T09:44:25.552Z,40.10
2018-11-20T09:47:11.068Z,40.20
2018-11-20T09:50:14.114Z,40.40
2018-11-20T09:53:08.123Z,40.30
2018-11-20T09:55:59.340Z,40.40
2018-11-20T09:58:43.782Z,40.30
2018-11-20T10:01:26.479Z,40.20
2018-11-20T10:04:26.718Z,40.40
2018-11-20T10:07:18.020Z,40.30
2018-11-20T10:10:08.060Z,40.60
2018-11-20T10:12:59.139Z,40.20
2018-11-20T10:15:48.873Z,40.30
2018-11-20T10:18:38.608Z,40.30
2018-11-20T10:21:29.860Z,40.30
2018-11-20T10:24:30.157Z,40.40
2018-11-20T10:27:36.451Z,41.20
2018-11-20T10:30:18.697Z,40.50
2018-11-20T10:33:08.479Z,40.60
2018-11-20T10:36:02.456Z,40.60
2018-11-20T10:39:11.837Z,40.60
2018-11-20T10:42:12.008Z,40.60
2018-11-20T10:45:06.064Z,40.50
2018-11-20T10:47:56.020Z,40.40
2018-11-20T10:50:46.328Z,40.40
2018-11-20T10:53:46.234Z,40.40
2018-11-20T10:56:43.386Z,40.40
2018-11-20T10:59:38.342Z,40.60
2018-11-20T11:02:44.463Z,40.70
2018-11-20T11:05:49.046Z,40.60
2018-11-20T11:08:40.270Z,40.80
2018-11-20T11:11:40.441Z,40.60
2018-11-20T11:14:40.823Z,40.70
2018-11-20T11:17:23.440Z,40.90
2018-11-20T11:20:04.647Z,40.90
2018-11-20T11:23:00.171Z,41.00
2018-11-20T11:25:47.225Z,40.90
2018-11-20T11:28:40.987Z,40.90
2018-11-20T11:31:30.901Z,40.70
2018-11-20T11:34:25.024Z,40.70
2018-11-20T11:37:16.244Z,40.90
2018-11-20T11:40:07.486Z,40.70
2018-11-20T11:43:01.611Z,40.70
2018-11-20T11:45:50.708Z,40.60
2018-11-20T11:48:41.945Z,40.60
2018-11-20T11:51:31.841Z,40.70
2018-11-20T11:54:17.294Z,40.80
2018-11-20T11:57:00.269Z,40.60
2018-11-20T11:59:51.498Z,40.60
2018-11-20T12:05:29.034Z,40.50
2018-11-20T12:08:10.904Z,40.50
2018-11-20T12:11:01.003Z,40.50
2018-11-20T12:14:07.625Z,40.70
2018-11-20T12:16:58.881Z,40.70
2018-11-20T12:19:49.174Z,40.60
2018-11-20T12:22:36.797Z,40.60
2018-11-20T12:25:26.534Z,40.60
2018-11-20T12:28:16.798Z,40.60
2018-11-20T12:31:09.410Z,40.70
2018-11-20T12:33:59.975Z,40.80
2018-11-20T12:36:42.156Z,40.90
2018-11-20T12:39:48.786Z,41.10
2018-11-20T12:42:43.047Z,41.10
2018-11-20T12:45:40.461Z,41.20
2018-11-20T12:48:30.158Z,41.40
2018-11-20T12:51:21.430Z,41.30
2018-11-20T12:54:14.952Z,41.50
2018-11-20T12:57:09.494Z,41.70
2018-11-20T12:59:59.440Z,41.70
2018-11-20T13:02:49.168Z,41.50
2018-11-20T13:05:58.640Z,41.70
2018-11-20T13:08:48.868Z,41.60
2018-11-20T13:11:49.347Z,41.60
2018-11-20T13:14:39.481Z,41.80
2018-11-20T13:17:46.062Z,41.90
2018-11-20T13:20:50.573Z,42.00
2018-11-20T13:23:39.287Z,42.10
2018-11-20T13:26:21.917Z,42.20
2018-11-20T13:29:11.632Z,42.10
2018-11-20T13:32:15.147Z,42.20
2018-11-20T13:35:09.213Z,42.20
2018-11-20T13:38:09.570Z,42.40
2018-11-20T13:41:44.143Z,42.30
2018-11-20T13:44:44.286Z,42.20
2018-11-20T13:47:34.345Z,42.30
2018-11-20T13:50:23.613Z,42.20
2018-11-20T13:53:33.201Z,42.30
2018-11-20T13:56:24.712Z,42.20
2018-11-20T13:59:24.209Z,42.20
2018-11-20T14:02:14.179Z,42.30
2018-11-20T14:05:04.040Z,42.20
2018-11-20T14:07:53.989Z,42.40
2018-11-20T14:10:44.432Z,42.50
2018-11-20T14:13:25.019Z,42.40
2018-11-20T14:16:18.857Z,41.90
2018-11-20T14:19:05.954Z,42.40
2018-11-20T14:21:58.275Z,42.20
2018-11-20T14:24:48.346Z,42.20
2018-11-20T14:27:49.082Z,42.20
2018-11-20T14:30:51.941Z,42.30
2018-11-20T14:33:41.909Z,42.30
2018-11-20T14:36:30.838Z,42.30
2018-11-20T14:39:33.915Z,42.20
2018-11-20T14:42:23.487Z,42.20
2018-11-20T14:45:08.975Z,42.40
2018-11-20T14:48:18.746Z,42.50
2018-11-20T14:50:58.745Z,42.60
2018-11-20T14:53:46.704Z,42.50
2018-11-20T14:56:26.205Z,42.40
2018-11-20T14:59:20.252Z,42.50
2018-11-20T15:02:10.184Z,42.50
2018-11-20T15:05:07.375Z,42.50
2018-11-20T15:07:59.261Z,42.50
2018-11-20T15:10:48.562Z,42.60
2018-11-20T15:13:41.848Z,42.60
2018-11-20T15:16:41.735Z,42.60
2018-11-20T15:19:31.687Z,42.40
2018-11-20T15:22:32.248Z,42.50
2018-11-20T15:25:23.517Z,42.60
2018-11-20T15:28:14.797Z,42.70
2018-11-20T15:31:14.227Z,42.60
2018-11-20T15:33:56.605Z,42.60
2018-11-20T15:36:45.346Z,42.50
2018-11-20T15:39:33.616Z,43.20
2018-11-20T15:42:37.325Z,43.40
2018-11-20T15:45:32.732Z,42.70
2018-11-20T15:48:24.025Z,42.50
2018-11-20T15:51:21.066Z,42.60
2018-11-20T15:54:18.415Z,42.50
2018-11-20T15:57:27.926Z,42.40
2018-11-20T16:00:34.338Z,42.40
2018-11-20T16:03:24.351Z,42.40
2018-11-20T16:06:14.151Z,42.50
2018-11-20T16:09:14.240Z,42.50
2018-11-20T16:12:19.279Z,42.50
2018-11-20T16:15:09.116Z,42.40
2018-11-20T16:18:15.337Z,42.40
2018-11-20T16:21:06.626Z,42.40
2018-11-20T16:24:07.199Z,42.90
2018-11-20T16:26:58.445Z,42.20
2018-11-20T16:29:55.852Z,42.20
2018-11-20T16:32:47.092Z,42.20
2018-11-20T16:35:36.936Z,42.10
2018-11-20T16:38:33.804Z,42.20
2018-11-20T16:41:31.620Z,42.20
2018-11-20T16:44:23.443Z,42.10
2018-11-20T16:47:20.855Z,42.10
2018-11-20T16:50:11.537Z,42.10
2018-11-20T16:53:02.765Z,42.20
2018-11-20T16:56:08.564Z,42.20
2018-11-20T16:58:51.052Z,42.20
2018-11-20T17:01:35.332Z,42.20
2018-11-20T17:04:45.005Z,42.10
2018-11-20T17:07:39.065Z,42.20
2018-11-20T17:10:33.225Z,42.20
2018-11-20T17:13:20.021Z,42.30
2018-11-20T17:16:05.830Z,42.40
2018-11-20T17:18:57.040Z,42.40
2018-11-20T17:22:23.744Z,42.50
2018-11-20T17:25:13.758Z,42.70
2018-11-20T17:27:53.930Z,42.60
2018-11-20T17:30:55.780Z,42.40
2018-11-20T17:33:43.211Z,42.50
2018-11-20T17:36:42.353Z,42.30
2018-11-20T17:39:42.091Z,42.30
2018-11-20T17:42:38.060Z,41.90
2018-11-20T17:45:46.156Z,41.90
2018-11-20T17:48:42.240Z,42.00
2018-11-20T17:51:35.236Z,42.00
2018-11-20T17:54:23.800Z,42.10
2018-11-20T17:57:32.368Z,41.90
2018-11-20T18:00:13.702Z,41.90
2018-11-20T18:03:02.389Z,41.90
2018-11-20T18:06:01.512Z,41.90
2018-11-20T18:08:43.993Z,41.90
2018-11-20T18:11:32.834Z,42.10
2018-11-20T18:14:21.481Z,42.20
2018-11-20T18:17:20.528Z,42.40
2018-11-20T18:20:10.121Z,42.10
2018-11-20T18:22:50.922Z,42.20
2018-11-20T18:25:49.950Z,42.20
2018-11-20T18:28:38.710Z,42.20
2018-11-20T18:31:28.832Z,42.20
2018-11-20T18:34:09.170Z,42.20
2018-11-20T18:37:07.888Z,42.20
2018-11-20T18:39:50.951Z,42.30
2018-11-20T18:42:39.422Z,42.40
2018-11-20T18:45:26.922Z,42.50
2018-11-20T18:48:19.701Z,42.50
2018-11-20T18:51:15.728Z,42.30
2018-11-20T18:54:12.888Z,42.20
2018-11-20T18:56:57.112Z,42.30
2018-11-20T18:59:50.150Z,42.30
2018-11-20T19:02:34.246Z,42.40
2018-11-20T19:05:43.614Z,42.50
2018-11-20T19:08:36.515Z,42.40
2018-11-20T19:11:26.555Z,42.30
2018-11-20T19:14:22.387Z,42.30
2018-11-20T19:17:12.395Z,42.10
2018-11-20T19:20:05.597Z,42.10
2018-11-20T19:22:58.334Z,42.00
2018-11-20T19:25:44.108Z,41.90
2018-11-20T19:28:30.833Z,42.00
2018-11-20T19:31:26.877Z,42.10
2018-11-20T19:34:15.437Z,42.20
2018-11-20T19:37:04.049Z,42.00
2018-11-20T19:39:54.125Z,42.10
2018-11-20T19:42:43.071Z,42.10
2018-11-20T19:45:31.926Z,42.20
2018-11-20T19:48:20.667Z,42.20
2018-11-20T19:51:19.394Z,42.20
2018-11-20T19:54:21.479Z,42.30
2018-11-20T19:57:10.288Z,42.20
2018-11-20T20:00:08.037Z,42.30
2018-11-20T20:02:56.891Z,42.50
2018-11-20T20:05:45.466Z,42.50
2018-11-20T20:08:31.301Z,42.60
2018-11-20T20:11:30.116Z,42.60
2018-11-20T20:14:13.968Z,42.60
2018-11-20T20:17:21.702Z,42.50
2018-11-20T20:20:12.670Z,42.50
2018-11-20T20:23:17.994Z,42.60
2018-11-20T20:26:08.427Z,42.60
2018-11-20T20:29:07.822Z,42.50
2018-11-20T20:32:07.343Z,42.90
2018-11-20T20:34:47.589Z,43.10
2018-11-20T20:37:35.636Z,43.20
2018-11-20T20:40:32.248Z,43.40
2018-11-20T20:43:21.550Z,43.40
2018-11-20T20:46:16.823Z,43.40
2018-11-20T20:49:09.766Z,43.10
2018-11-20T20:51:58.900Z,43.10
2018-11-20T20:54:48.907Z,43.10
2018-11-20T20:57:37.568Z,42.90
2018-11-20T21:00:31.214Z,43.00
2018-11-20T21:03:21.194Z,43.30
2018-11-20T21:06:10.746Z,43.30
2018-11-20T21:08:59.585Z,43.30
2018-11-20T21:11:52.602Z,43.30
2018-11-20T21:14:41.533Z,43.30
2018-11-20T21:17:31.484Z,43.30
2018-11-20T21:20:20.237Z,43.10
2018-11-20T21:23:09.076Z,43.30
2018-11-20T21:25:57.755Z,43.40
2018-11-20T21:28:46.414Z,43.40
2018-11-20T21:31:36.423Z,43.40
2018-11-20T21:34:29.381Z,44.40
2018-11-20T21:37:18.642Z,43.70
2018-11-20T21:40:07.302Z,43.80
2018-11-20T21:42:55.923Z,43.80
2018-11-20T21:45:46.033Z,43.90
2018-11-20T21:48:24.223Z,43.90
2018-11-20T21:51:15.273Z,44.00
2018-11-20T21:53:55.189Z,43.90
2018-11-20T21:56:48.218Z,44.00
2018-11-20T22:00:02.287Z,44.00
2018-11-20T22:02:52.713Z,43.90
2018-11-20T22:05:52.329Z,43.80
2018-11-20T22:08:50.181Z,43.90
2018-11-20T22:11:46.143Z,43.70
2018-11-20T22:14:39.181Z,43.60
2018-11-20T22:17:28.193Z,43.50
2018-11-20T22:20:23.428Z,43.40
2018-11-20T22:23:16.155Z,43.50
2018-11-20T22:26:01.766Z,43.60
2018-11-20T22:28:50.608Z,43.60
2018-11-20T22:31:46.806Z,43.50
2018-11-20T22:34:48.929Z,43.40
2018-11-20T22:37:37.529Z,43.40
2018-11-20T22:40:30.310Z,43.40
2018-11-20T22:43:16.760Z,43.50
2018-11-20T22:46:05.556Z,43.50
2018-11-20T22:49:01.828Z,43.30
2018-11-20T22:52:00.998Z,43.30
2018-11-20T22:54:49.557Z,43.40
2018-11-20T22:57:39.593Z,43.20
2018-11-20T23:00:29.839Z,43.30
2018-11-20T23:03:09.327Z,43.30
2018-11-20T23:05:51.513Z,43.30
2018-11-20T23:08:22.427Z,43.40
2018-11-20T23:10:53.447Z,43.40
2018-11-20T23:13:24.419Z,43.30
2018-11-20T23:15:55.369Z,43.30
2018-11-20T23:18:26.367Z,43.30
2018-11-20T23:20:57.332Z,43.40
2018-11-20T23:23:28.329Z,43.30
2018-11-20T23:25:59.292Z,43.10
2018-11-20T23:28:30.288Z,43.20
2018-11-20T23:31:01.265Z,43.20
2018-11-20T23:33:32.239Z,43.30
2018-11-20T23:36:03.190Z,43.30
2018-11-20T23:38:34.161Z,43.20
2018-11-20T23:41:05.216Z,44.00
2018-11-20T23:43:36.192Z,43.20
2018-11-20T23:46:07.152Z,43.10
2018-11-20T23:48:38.132Z,43.20
2018-11-20T23:51:09.101Z,43.30
2018-11-20T23:53:40.090Z,43.20
2018-11-20T23:56:11.059Z,43.30
2018-11-20T23:58:42.036Z,43.30
